DAUB

Details ICAO DAUB (BSK)
Name BISKRA
Region Algeria
Timezone Africa/Algiers (UTC+1.0)
Plans Departing 16
Arriving 15
Stats Elevation 289 ft / 88 m (AMSL)
Location 34.793366° 5.738308°
Runways 1
Magnetic Variation 1.505° E
Sunrise 2017-12-14 06:37:53 UTC / 2017-12-14 07:37:53 Local
Sunset 2017-12-14 16:28:21 UTC / 2017-12-14 17:28:21 Local
Advertisement - Login to hide

Runways

ID Width Length Bearing (true) Bearing (mag) Surface Threshold Offset Overrun Length
13 148 ft / 45 m 9,468 ft / 2,886 m 129.67° 128.17° Asphalt 0 ft / 0 m 678 ft / 207 m
31 148 ft / 45 m 9,468 ft / 2,886 m 309.69° 308.19° Asphalt 0 ft / 0 m 678 ft / 207 m

Map

Weather


0- 5 10 15 20 25 30 35+ Temperature / ° C

Clouds and Precipitation
Forecast for 2017-12-14 00:00 UTC. Updated an hour ago

Ground ~20,000 ft ~40,000 ft Winds

METAR

DAUB 140000Z 32014KT CAVOK 12/02 Q1026

TAF

TAF DAUB 132300Z 1400/1424 31012KT CAVOK BECMG 1406/1409 01009KT
Warning: Do not use this data for real-world aviation or navigation. No guarantee of current accuracy is given.